VOBZ/VGA METAR and TAF weather

Enter ICAO airport designator
Station Type Date Time Source
VOBZ METAR 2021/03/08 02:30 UTC NOAA

VOBZ 080230Z 22002KT 1800 BR SCT020 BKN100 25/24 Q1014 NOSIG


Station Type Date Time Source
VOBZ Decoded METAR 2021/03/08 02:30 UTC NOAA

Vijayawada / Gannavaram, India (VOBZ) 16-32N 080-48E 24M
Mar 07, 2021 - 09:30 PM EST / 2021.03.08 0230 UTC
Wind: from the SW (220 degrees) at 2 MPH (2 KT):0
Visibility: 1 mile(s):0
Sky conditions: mostly cloudy
Weather: mist
Temperature: 77 F (25 C)
Dew Point: 75 F (24 C)
Relative Humidity: 94%
Pressure (altimeter): 29.94 in. Hg (1014 hPa)
ob: VOBZ 080230Z 22002KT 1800 BR SCT020 BKN100 25/24 Q1014 NOSIG
cycle: 2

Station Type Date Time Source
VOBZ TAF 2021/01/18 00:00 UTC NOAA

TAF VOBZ 182300Z 1900/1909 10005KT 3000 BR SCT015
TEMPO 1900/1903 VRB03KT 0800 MIFG SCT010
BECMG 1905/1907 08008KT 5000 HZ FEW020 SCT100

Example: see airport list